createdAt,value
2022-11-19T00:48:42.696Z,21.10
2022-11-19T00:51:11.837Z,21.10
2022-11-19T00:53:40.547Z,21.10
2022-11-19T00:56:11.381Z,21.10
2022-11-19T00:58:40.770Z,21.10
2022-11-19T01:45:29.695Z,20.90
2022-11-19T01:48:04.889Z,20.90
2022-11-19T01:50:36.314Z,20.90
2022-11-19T01:53:05.616Z,21.00
2022-11-19T01:55:34.003Z,20.90
2022-11-19T01:58:04.427Z,21.00
2022-11-19T02:48:01.337Z,21.00
2022-11-19T02:50:35.834Z,20.90
2022-11-19T02:53:05.600Z,20.90
2022-11-19T02:55:33.943Z,20.80
2022-11-19T02:58:08.187Z,21.00
2022-11-19T03:46:08.422Z,20.80
2022-11-19T03:48:39.102Z,20.80
2022-11-19T03:51:12.552Z,20.80
2022-11-19T03:53:41.188Z,20.90
2022-11-19T03:56:13.858Z,20.70
2022-11-19T03:58:44.280Z,20.70
2022-11-19T04:48:31.126Z,20.80
2022-11-19T04:50:59.634Z,20.90
2022-11-19T04:53:27.960Z,20.90
2022-11-19T04:55:56.304Z,20.90
2022-11-19T04:58:24.813Z,20.70
2022-11-19T05:33:02.505Z,20.70
2022-11-19T05:35:31.166Z,20.70
2022-11-19T05:37:59.733Z,20.70
2022-11-19T05:40:28.382Z,20.70
2022-11-19T05:42:56.692Z,20.60
2022-11-19T05:45:25.481Z,20.70
2022-11-19T05:47:56.399Z,20.60
2022-11-19T05:50:26.168Z,20.70
2022-11-19T05:52:54.626Z,20.60
2022-11-19T05:55:23.027Z,20.60
2022-11-19T05:57:51.696Z,20.60
2022-11-19T06:00:20.873Z,20.60
2022-11-19T06:02:49.374Z,20.60
2022-11-19T06:05:18.067Z,20.60
2022-11-19T06:07:47.784Z,20.60
2022-11-19T06:10:16.360Z,20.70
2022-11-19T06:12:46.087Z,20.70
2022-11-19T06:15:15.363Z,20.70
2022-11-19T06:17:43.852Z,20.60
2022-11-19T06:20:12.935Z,20.70
2022-11-19T06:22:41.470Z,20.70
2022-11-19T06:25:11.518Z,20.70
2022-11-19T06:27:39.958Z,20.70
2022-11-19T06:30:10.170Z,20.70
2022-11-19T06:32:38.550Z,19.80
2022-11-19T06:35:08.088Z,20.70
2022-11-19T06:37:36.448Z,20.70
2022-11-19T06:40:05.569Z,20.70
2022-11-19T06:42:38.018Z,20.70
2022-11-19T06:45:09.382Z,20.30
2022-11-19T06:47:38.741Z,20.70
2022-11-19T06:50:08.550Z,20.60
2022-11-19T06:52:37.211Z,20.70
2022-11-19T06:55:06.641Z,20.70
2022-11-19T06:57:36.411Z,20.70
2022-11-19T07:00:06.185Z,20.70
2022-11-19T07:02:34.765Z,20.70
2022-11-19T07:05:03.183Z,20.70
2022-11-19T07:07:32.050Z,20.70
2022-11-19T07:10:00.594Z,20.80
2022-11-19T07:12:29.248Z,20.70
2022-11-19T07:15:04.037Z,20.80
2022-11-19T07:17:33.324Z,20.80
2022-11-19T07:20:02.237Z,20.90
2022-11-19T07:22:30.717Z,20.90
2022-11-19T07:24:59.066Z,21.00
2022-11-19T07:27:27.438Z,20.90
2022-11-19T07:29:55.826Z,21.00
2022-11-19T07:32:25.705Z,21.00
2022-11-19T07:34:54.143Z,20.90
2022-11-19T07:37:22.518Z,21.00
2022-11-19T07:39:50.845Z,21.00
2022-11-19T07:42:36.844Z,20.90
2022-11-19T07:45:10.906Z,20.90
2022-11-19T07:47:40.757Z,21.10
2022-11-19T07:50:10.185Z,21.10
2022-11-19T07:52:38.651Z,21.20
2022-11-19T07:55:08.228Z,21.20
2022-11-19T07:57:36.791Z,21.20
2022-11-19T08:00:07.221Z,21.30
2022-11-19T08:02:42.788Z,21.30
2022-11-19T08:05:11.387Z,21.30
2022-11-19T08:07:40.159Z,21.30
2022-11-19T08:10:10.798Z,21.40
2022-11-19T08:12:39.228Z,21.40
2022-11-19T08:15:09.533Z,21.50
2022-11-19T08:17:51.775Z,21.50
2022-11-19T08:20:21.516Z,21.50
2022-11-19T08:22:50.122Z,21.50
2022-11-19T08:25:18.962Z,21.60
2022-11-19T08:27:47.293Z,21.60
2022-11-19T08:30:16.743Z,21.70
2022-11-19T08:32:45.306Z,21.80
2022-11-19T08:35:13.741Z,22.00
2022-11-19T08:37:43.718Z,22.10
2022-11-19T08:40:12.913Z,22.10
2022-11-19T08:42:58.860Z,22.10
2022-11-19T08:45:29.476Z,22.00
2022-11-19T08:47:59.370Z,22.00
2022-11-19T08:50:28.829Z,21.30
2022-11-19T08:53:00.684Z,21.30
2022-11-19T08:55:30.808Z,21.20
2022-11-19T08:58:04.022Z,21.10
2022-11-19T09:00:35.233Z,21.10
2022-11-19T09:03:03.885Z,21.10
2022-11-19T09:05:32.423Z,21.20
2022-11-19T09:08:02.151Z,21.20
2022-11-19T09:10:30.686Z,21.30
2022-11-19T09:12:59.038Z,21.40
2022-11-19T09:15:27.420Z,21.50
2022-11-19T09:17:55.885Z,21.50
2022-11-19T09:20:24.329Z,21.50
2022-11-19T09:22:52.900Z,21.50
2022-11-19T09:25:22.795Z,21.50
2022-11-19T09:27:51.504Z,21.60
2022-11-19T09:30:20.072Z,21.60
2022-11-19T09:32:48.550Z,21.70
2022-11-19T09:35:17.152Z,21.60
2022-11-19T09:37:45.548Z,21.60
2022-11-19T09:40:20.787Z,21.60
2022-11-19T09:43:03.644Z,21.60
2022-11-19T09:45:47.037Z,21.60
2022-11-19T09:48:32.580Z,21.70
2022-11-19T09:51:06.656Z,21.70
2022-11-19T09:53:41.868Z,21.60
2022-11-19T09:56:16.593Z,21.90
2022-11-19T09:58:47.037Z,21.60
2022-11-19T10:01:17.639Z,21.60
2022-11-19T10:03:49.984Z,21.60
2022-11-19T10:06:31.185Z,21.60
2022-11-19T10:09:20.274Z,21.60
2022-11-19T10:12:02.925Z,21.50
2022-11-19T10:15:02.802Z,21.50
2022-11-19T10:17:45.506Z,21.40
2022-11-19T10:20:49.064Z,21.50
2022-11-19T10:23:19.994Z,21.60
2022-11-19T10:25:50.937Z,21.50
2022-11-19T10:28:24.391Z,21.70
2022-11-19T10:30:57.297Z,21.50
2022-11-19T10:33:32.207Z,21.50
2022-11-19T10:36:07.751Z,21.50
2022-11-19T10:38:47.254Z,21.50
2022-11-19T10:41:30.526Z,21.40
2022-11-19T10:47:19.155Z,21.50
2022-11-19T10:49:51.976Z,21.60
2022-11-19T10:52:30.923Z,21.40
2022-11-19T10:55:06.171Z,21.60
2022-11-19T10:57:35.315Z,21.60
2022-11-19T11:00:04.289Z,21.60
2022-11-19T11:02:45.881Z,21.60
2022-11-19T11:05:17.592Z,21.60
2022-11-19T11:07:55.728Z,21.70
2022-11-19T11:10:42.992Z,21.60
2022-11-19T11:13:47.419Z,21.60
2022-11-19T11:16:20.195Z,21.60
2022-11-19T11:18:51.072Z,21.60
2022-11-19T11:21:42.946Z,21.70
2022-11-19T11:24:13.415Z,21.60
2022-11-19T11:26:42.654Z,21.60
2022-11-19T11:29:28.129Z,21.50
2022-11-19T11:31:56.613Z,21.50
2022-11-19T11:34:37.577Z,21.50
2022-11-19T11:37:08.648Z,21.50
2022-11-19T11:39:40.204Z,21.50
2022-11-19T11:42:17.421Z,21.20
2022-11-19T11:44:52.859Z,21.40
2022-11-19T11:47:24.687Z,21.40
2022-11-19T11:50:07.664Z,21.40
2022-11-19T11:52:42.256Z,21.50
2022-11-19T11:55:17.403Z,21.50
2022-11-19T11:57:54.594Z,21.40
2022-11-19T12:00:39.142Z,21.50
2022-11-19T12:03:11.045Z,21.40
2022-11-19T12:05:59.060Z,21.40
2022-11-19T12:08:49.154Z,21.40
2022-11-19T12:11:25.146Z,21.40
2022-11-19T12:14:10.767Z,21.40
2022-11-19T12:16:57.174Z,21.30
2022-11-19T12:19:41.322Z,21.30
2022-11-19T12:22:23.635Z,21.30
2022-11-19T12:25:20.625Z,21.30
2022-11-19T12:28:10.869Z,21.30
2022-11-19T12:30:53.173Z,21.40
2022-11-19T12:33:35.237Z,21.40
2022-11-19T12:36:14.844Z,21.40
2022-11-19T12:38:57.498Z,21.30
2022-11-19T12:41:53.497Z,21.30
2022-11-19T12:44:37.398Z,21.30
2022-11-19T12:47:15.800Z,21.20
2022-11-19T12:50:15.180Z,21.20
2022-11-19T12:53:21.883Z,21.30
2022-11-19T12:56:03.400Z,21.30
2022-11-19T12:58:48.671Z,21.40
2022-11-19T13:01:22.464Z,21.30
2022-11-19T13:04:03.515Z,21.30
2022-11-19T13:06:39.108Z,21.30
2022-11-19T13:09:15.989Z,21.30
2022-11-19T13:11:51.525Z,21.30
2022-11-19T13:14:31.875Z,21.20
2022-11-19T13:17:01.169Z,21.30
2022-11-19T13:19:33.568Z,21.20
2022-11-19T13:22:08.403Z,21.30
2022-11-19T13:24:42.155Z,21.20
2022-11-19T13:27:22.781Z,21.20
2022-11-19T13:29:58.832Z,21.70
2022-11-19T13:32:34.238Z,21.20
2022-11-19T13:35:14.587Z,21.20
2022-11-19T13:37:56.893Z,21.20
2022-11-19T13:40:31.845Z,21.20
2022-11-19T13:43:35.201Z,21.30
2022-11-19T13:46:22.958Z,21.20
2022-11-19T13:48:58.471Z,21.30
2022-11-19T13:51:33.166Z,21.30
2022-11-19T13:54:04.031Z,21.10
2022-11-19T13:56:55.974Z,21.30
2022-11-19T13:59:33.727Z,21.40
2022-11-19T14:02:37.072Z,21.40
2022-11-19T14:05:34.563Z,21.50
2022-11-19T14:08:26.681Z,21.50
2022-11-19T14:11:12.317Z,21.50
2022-11-19T14:14:29.624Z,21.40
2022-11-19T14:17:25.502Z,21.40
2022-11-19T14:20:14.729Z,21.40
2022-11-19T14:23:11.880Z,21.40
2022-11-19T14:26:04.082Z,21.40
2022-11-19T14:28:47.106Z,21.30
2022-11-19T14:31:16.432Z,21.40
2022-11-19T14:34:04.256Z,21.50
2022-11-19T14:36:47.422Z,21.40
2022-11-19T14:39:23.802Z,21.50
2022-11-19T14:42:14.734Z,21.40
2022-11-19T14:44:44.516Z,21.30
2022-11-19T14:47:35.824Z,21.30
2022-11-19T14:50:09.420Z,21.30
2022-11-19T14:52:50.545Z,21.30
2022-11-19T14:55:25.025Z,21.30
2022-11-19T14:58:01.788Z,21.30
2022-11-19T15:00:34.456Z,21.30
2022-11-19T15:03:06.480Z,21.30
2022-11-19T15:05:40.607Z,21.40
2022-11-19T15:08:49.993Z,21.40
2022-11-19T15:11:18.557Z,21.40
2022-11-19T15:13:48.248Z,21.50
2022-11-19T15:16:19.913Z,21.50
2022-11-19T15:19:31.337Z,21.50
2022-11-19T15:22:45.439Z,21.40
2022-11-19T15:25:26.188Z,21.40
2022-11-19T15:28:17.691Z,21.40
2022-11-19T15:31:06.046Z,21.50
2022-11-19T15:33:57.856Z,21.40
2022-11-19T15:36:39.612Z,21.40
2022-11-19T15:39:17.780Z,21.40
2022-11-19T15:42:01.363Z,21.40
2022-11-19T15:44:40.819Z,21.40
2022-11-19T15:47:15.831Z,21.50
2022-11-19T15:49:45.561Z,21.40
2022-11-19T15:52:23.019Z,21.40
2022-11-19T15:54:53.262Z,21.40
2022-11-19T15:57:28.112Z,21.50
2022-11-19T16:00:00.919Z,21.50
2022-11-19T16:02:37.600Z,21.50
2022-11-19T16:05:08.388Z,21.50
2022-11-19T16:07:39.376Z,21.50
2022-11-19T16:10:16.461Z,21.40
2022-11-19T16:13:18.000Z,21.50
2022-11-19T16:16:08.283Z,21.40
2022-11-19T16:18:47.507Z,21.30
2022-11-19T16:21:20.585Z,21.40
2022-11-19T16:24:06.681Z,21.30
2022-11-19T16:26:40.097Z,21.30
2022-11-19T16:29:13.564Z,21.30
2022-11-19T16:31:41.993Z,21.30
2022-11-19T16:34:19.572Z,21.30
2022-11-19T16:36:49.371Z,21.30
2022-11-19T16:39:23.532Z,21.20
2022-11-19T16:42:15.654Z,21.30
2022-11-19T16:44:46.594Z,21.30
2022-11-19T16:47:24.449Z,21.20
2022-11-19T16:50:05.621Z,21.30
2022-11-19T16:52:43.360Z,21.30
2022-11-19T16:55:42.791Z,21.30
2022-11-19T16:58:26.402Z,21.30
2022-11-19T17:00:59.444Z,21.20
2022-11-19T17:03:36.768Z,21.20
2022-11-19T17:06:07.704Z,21.30
2022-11-19T17:08:38.719Z,21.20
2022-11-19T17:11:39.399Z,21.20
2022-11-19T17:14:21.273Z,21.30
2022-11-19T17:16:52.079Z,21.30
2022-11-19T17:19:28.312Z,21.30
2022-11-19T17:22:02.379Z,21.30
2022-11-19T17:24:32.988Z,21.20
2022-11-19T17:27:01.347Z,21.20
2022-11-19T17:29:31.441Z,21.20
2022-11-19T17:32:01.216Z,21.30
2022-11-19T17:34:35.232Z,21.40
2022-11-19T17:37:09.270Z,21.50
2022-11-19T17:39:37.842Z,21.30
2022-11-19T17:42:23.803Z,21.30
2022-11-19T17:44:53.724Z,21.20
2022-11-19T17:47:24.213Z,21.20
2022-11-19T17:49:53.834Z,21.10
2022-11-19T17:52:25.325Z,21.20
2022-11-19T17:54:56.063Z,21.20
2022-11-19T17:57:24.721Z,21.20
2022-11-19T17:59:54.960Z,21.20
2022-11-19T18:02:23.477Z,21.10
2022-11-19T18:04:51.792Z,21.20
2022-11-19T18:07:20.195Z,21.60
2022-11-19T18:09:48.630Z,21.30
2022-11-19T18:12:20.067Z,21.30
2022-11-19T18:14:48.609Z,21.50
2022-11-19T18:17:18.544Z,21.70
2022-11-19T18:19:47.399Z,21.80
2022-11-19T18:22:20.131Z,21.90
2022-11-19T18:24:50.234Z,22.30
2022-11-19T18:27:19.436Z,22.40
2022-11-19T18:29:47.851Z,22.30
2022-11-19T18:32:17.840Z,22.40
2022-11-19T18:34:47.261Z,22.30
2022-11-19T18:37:17.317Z,22.20
2022-11-19T18:39:46.513Z,22.10
2022-11-19T18:42:15.546Z,22.00
2022-11-19T18:44:43.615Z,21.90
2022-11-19T18:47:14.900Z,21.90
2022-11-19T18:49:44.625Z,21.90
2022-11-19T18:52:15.599Z,21.90
2022-11-19T18:54:44.316Z,21.80
2022-11-19T18:57:18.489Z,21.80
2022-11-19T18:59:58.922Z,21.70
2022-11-19T19:06:24.219Z,21.80
2022-11-19T19:08:53.730Z,21.70
2022-11-19T19:11:40.087Z,21.70
2022-11-19T19:14:08.831Z,21.70
2022-11-19T19:16:37.380Z,21.70
2022-11-19T19:19:06.440Z,21.70
2022-11-19T19:21:37.427Z,21.80
2022-11-19T19:24:06.962Z,21.80
2022-11-19T19:26:35.410Z,21.80
2022-11-19T19:29:05.570Z,21.70
2022-11-19T19:31:34.293Z,21.70
2022-11-19T19:34:02.619Z,21.70
2022-11-19T19:36:35.237Z,21.70
2022-11-19T19:39:05.607Z,21.70
2022-11-19T19:41:34.465Z,21.70
2022-11-19T19:44:04.408Z,21.70
2022-11-19T19:46:34.253Z,21.70
2022-11-19T19:49:02.618Z,21.60
2022-11-19T19:51:32.644Z,21.60
2022-11-19T19:54:02.354Z,21.60
2022-11-19T19:56:56.194Z,21.50
2022-11-19T19:59:25.937Z,22.50
2022-11-19T20:01:54.386Z,21.60
2022-11-19T20:04:22.994Z,21.60
2022-11-19T20:06:52.916Z,21.60
2022-11-19T20:09:21.371Z,21.70
2022-11-19T20:11:51.441Z,21.60
2022-11-19T20:14:20.202Z,21.60
2022-11-19T20:16:48.858Z,21.70
2022-11-19T20:19:17.421Z,21.60
2022-11-19T20:21:47.066Z,21.50
2022-11-19T20:24:17.255Z,21.50
2022-11-19T20:26:45.565Z,21.40
2022-11-19T20:29:17.478Z,21.50
2022-11-19T20:31:48.234Z,21.50
2022-11-19T20:34:17.766Z,21.50
2022-11-19T20:36:46.173Z,21.60
2022-11-19T20:39:14.610Z,21.60
2022-11-19T20:42:00.562Z,21.60
2022-11-19T20:44:30.395Z,21.50
2022-11-19T20:47:02.005Z,21.40
2022-11-19T20:49:33.190Z,21.40
2022-11-19T20:52:02.446Z,21.50
2022-11-19T20:54:31.047Z,21.50
2022-11-19T20:57:00.338Z,21.50
2022-11-19T20:59:30.545Z,21.50
2022-11-19T21:01:59.595Z,21.50
2022-11-19T21:04:36.412Z,21.80
2022-11-19T21:07:05.114Z,21.40
2022-11-19T21:09:33.768Z,21.40
2022-11-19T21:12:02.101Z,21.40
2022-11-19T21:14:34.007Z,21.40
2022-11-19T21:17:02.502Z,21.40
2022-11-19T21:19:30.889Z,21.30
2022-11-19T21:21:59.472Z,21.30
2022-11-19T21:24:27.950Z,21.30
2022-11-19T21:26:56.439Z,21.30
2022-11-19T21:29:25.020Z,21.30
2022-11-19T21:31:55.548Z,21.30
2022-11-19T21:34:24.262Z,21.30
2022-11-19T21:36:53.075Z,21.20
2022-11-19T21:39:21.824Z,21.20
2022-11-19T21:41:50.323Z,21.20
2022-11-19T21:44:21.705Z,21.20
2022-11-19T21:46:50.642Z,21.30
2022-11-19T21:49:20.964Z,21.20
2022-11-19T21:51:49.898Z,21.40
2022-11-19T21:54:19.059Z,21.30
2022-11-19T21:56:48.157Z,21.30
2022-11-19T21:59:16.449Z,21.40
2022-11-19T22:01:44.917Z,21.30
2022-11-19T22:04:15.386Z,21.20
2022-11-19T22:06:45.164Z,21.20
2022-11-19T22:09:13.613Z,21.20
2022-11-19T22:11:42.195Z,21.20
2022-11-19T22:14:11.661Z,21.20
2022-11-19T22:16:41.684Z,21.20
2022-11-19T22:19:11.856Z,21.20
2022-11-19T22:21:40.980Z,21.20
2022-11-19T22:24:13.334Z,21.20
2022-11-19T22:26:42.385Z,20.80
2022-11-19T22:29:12.117Z,21.20
2022-11-19T22:31:41.283Z,21.10
2022-11-19T22:34:10.246Z,21.10
2022-11-19T22:36:38.959Z,21.10
2022-11-19T22:39:07.890Z,21.10
2022-11-19T22:41:38.613Z,21.20
2022-11-19T22:44:07.996Z,21.10
2022-11-19T22:46:37.021Z,21.10
2022-11-19T22:49:06.631Z,21.10
2022-11-19T22:51:35.729Z,21.20
2022-11-19T22:54:04.636Z,21.20
2022-11-19T22:56:33.502Z,21.20
2022-11-19T22:59:03.791Z,21.20
2022-11-19T23:01:35.506Z,21.20
2022-11-19T23:04:08.070Z,21.20
2022-11-19T23:06:38.235Z,21.20
2022-11-19T23:09:08.675Z,21.20
2022-11-19T23:11:55.192Z,21.20
2022-11-19T23:14:26.319Z,21.20
2022-11-19T23:45:18.857Z,21.20
2022-11-19T23:47:47.197Z,21.40
2022-11-19T23:50:15.662Z,21.30
2022-11-19T23:52:44.293Z,21.30
2022-11-19T23:55:12.741Z,21.30
2022-11-19T23:57:41.043Z,21.30
